Time;durP1;ratioP1;P1;durP2;ratioP2;P2;SDS_P1;SDS_P2;PMS_P1;PMS_P2;Temp;Humidity;BMP_temperature;BMP_pressure;BME280_temperature;BME280_humidity;BME280_pressure;Samples;Min_cycle;Max_cycle;Signal;HPM_P1;HPM_P2
2022/11/03 00:01:04;;;;;;;8.20;2.77;;;12.80;99.90;;;;;;5071216;28;20204;-78
2022/11/03 00:03:31;;;;;;;12.53;2.90;;;12.80;99.90;;;;;;5069034;28;20205;-77
2022/11/03 00:06:06;;;;;;;9.57;2.77;;;12.80;99.90;;;;;;5071181;28;20296;-77
2022/11/03 00:08:35;;;;;;;10.90;3.07;;;12.80;99.90;;;;;;5063508;28;20277;-75
2022/11/03 00:11:07;;;;;;;18.83;3.57;;;12.80;99.90;;;;;;5070568;28;20212;-76
2022/11/03 00:13:35;;;;;;;8.73;2.77;;;12.80;99.90;;;;;;5070961;28;20190;-77
2022/11/03 00:16:04;;;;;;;10.83;2.93;;;12.80;99.90;;;;;;5068770;28;20236;-77
2022/11/03 00:18:31;;;;;;;13.90;3.30;;;12.80;99.90;;;;;;5069910;28;20229;-77
2022/11/03 00:21:02;;;;;;;8.53;2.97;;;12.80;99.90;;;;;;5068893;28;20211;-78
2022/11/03 00:23:30;;;;;;;11.70;3.40;;;12.70;99.90;;;;;;5072749;28;20201;-77
2022/11/03 00:26:05;;;;;;;11.37;3.10;;;12.70;99.90;;;;;;5073160;28;20219;-74
2022/11/03 00:28:33;;;;;;;15.00;3.30;;;12.70;99.90;;;;;;5075034;28;20322;-77
2022/11/03 00:31:01;;;;;;;11.70;3.27;;;12.60;99.90;;;;;;5063723;28;20205;-77
2022/11/03 00:33:32;;;;;;;10.27;2.57;;;12.70;99.90;;;;;;5074534;28;20197;-76
2022/11/03 00:36:00;;;;;;;9.27;2.60;;;12.70;99.90;;;;;;5068432;28;20194;-75
2022/11/03 00:38:28;;;;;;;12.80;3.00;;;12.70;99.90;;;;;;5054516;28;20229;-75
2022/11/03 00:40:55;;;;;;;13.03;3.87;;;12.70;99.90;;;;;;5053721;28;20210;-76
2022/11/03 00:43:22;;;;;;;10.03;2.63;;;12.70;99.90;;;;;;5072908;28;20213;-75
2022/11/03 00:45:49;;;;;;;9.73;2.60;;;12.70;99.90;;;;;;5074256;28;20493;-75
2022/11/03 00:48:32;;;;;;;11.77;2.87;;;12.70;99.90;;;;;;5058428;28;20217;-75
2022/11/03 00:51:07;;;;;;;12.40;3.13;;;12.70;99.90;;;;;;5054800;28;20194;-75
2022/11/03 00:53:36;;;;;;;11.63;3.20;;;12.80;99.90;;;;;;5055106;28;20327;-76
2022/11/03 00:56:04;;;;;;;14.37;3.13;;;12.70;99.90;;;;;;5054050;28;20212;-76
2022/11/03 00:58:34;;;;;;;19.47;3.70;;;12.70;99.90;;;;;;5062311;28;20204;-77
2022/11/03 01:01:03;;;;;;;10.17;3.40;;;12.70;99.90;;;;;;5073798;28;20198;-76
2022/11/03 01:03:31;;;;;;;14.43;3.20;;;12.70;99.90;;;;;;5072196;28;20204;-77
2022/11/03 01:08:59;;;;;;;14.20;3.43;;;12.70;99.90;;;;;;5027215;28;20512;-78
2022/11/03 01:11:44;;;;;;;12.57;3.63;;;12.70;99.90;;;;;;5011837;28;20604;-77
2022/11/03 01:14:13;;;;;;;10.60;2.40;;;12.60;99.90;;;;;;5041925;28;20333;-76
2022/11/03 01:16:41;;;;;;;13.27;3.03;;;12.60;99.90;;;;;;5053262;28;20239;-76
2022/11/03 01:19:08;;;;;;;7.97;2.40;;;12.60;99.90;;;;;;5054340;28;20524;-77
2022/11/03 01:21:35;;;;;;;11.87;2.90;;;12.60;99.90;;;;;;5070276;28;20207;-75
2022/11/03 01:24:05;;;;;;;10.37;3.30;;;12.60;99.90;;;;;;5073375;28;20292;-76
2022/11/03 01:26:32;;;;;;;12.33;3.63;;;12.60;99.90;;;;;;5071882;28;20201;-78
2022/11/03 01:29:00;;;;;;;11.83;3.03;;;12.60;99.90;;;;;;5073931;28;20593;-80
2022/11/03 01:31:27;;;;;;;15.80;2.90;;;12.50;99.90;;;;;;5070778;28;20201;-78
2022/11/03 01:33:56;;;;;;;10.77;2.80;;;12.60;99.90;;;;;;5073458;28;20708;-76
2022/11/03 01:36:23;;;;;;;10.53;2.67;;;12.60;99.90;;;;;;5069602;28;20200;-76
2022/11/03 01:38:51;;;;;;;12.73;2.90;;;12.50;99.90;;;;;;5072766;28;20617;-75
2022/11/03 01:41:23;;;;;;;10.13;3.47;;;12.50;99.90;;;;;;5071908;28;20576;-75
2022/11/03 01:44:04;;;;;;;14.50;3.60;;;12.50;99.90;;;;;;5054876;28;20198;-76
2022/11/03 01:46:31;;;;;;;13.43;2.83;;;12.50;99.90;;;;;;5073167;28;20628;-76
2022/11/03 01:49:02;;;;;;;9.13;2.83;;;12.50;99.90;;;;;;5054547;28;20290;-78
2022/11/03 01:51:32;;;;;;;18.00;4.20;;;12.50;99.90;;;;;;5052607;28;20195;-76
2022/11/03 01:54:03;;;;;;;10.57;3.20;;;12.40;99.90;;;;;;5064820;28;20256;-75
2022/11/03 01:56:35;;;;;;;8.60;2.97;;;12.50;99.90;;;;;;5073443;28;20490;-75
2022/11/03 01:59:03;;;;;;;13.63;3.20;;;12.50;99.90;;;;;;5069972;28;20216;-77
2022/11/03 02:01:30;;;;;;;9.33;3.10;;;12.50;99.90;;;;;;5073538;28;20525;-76
2022/11/03 02:04:02;;;;;;;12.60;3.23;;;12.50;99.90;;;;;;5069031;28;20251;-76
2022/11/03 02:06:29;;;;;;;6.57;2.73;;;12.50;99.90;;;;;;5053160;28;20196;-76
2022/11/03 02:09:01;;;;;;;12.17;2.90;;;12.40;99.90;;;;;;5053552;28;20201;-77
2022/11/03 02:14:15;;;;;;;9.67;2.50;;;12.60;99.90;;;;;;5053133;28;20176;-75
2022/11/03 02:16:47;;;;;;;8.13;2.80;;;12.60;99.90;;;;;;5053410;28;20240;-75
2022/11/03 02:19:23;;;;;;;16.43;3.37;;;12.60;99.90;;;;;;5070198;28;20213;-76
2022/11/03 02:21:59;;;;;;;11.47;3.00;;;12.60;99.90;;;;;;5055976;28;20198;-75
2022/11/03 02:24:36;;;;;;;11.60;2.80;;;12.60;99.90;;;;;;5052702;28;20221;-76
2022/11/03 02:27:04;;;;;;;12.00;2.90;;;12.60;99.90;;;;;;5067457;28;20200;-76
2022/11/03 02:29:33;;;;;;;12.43;3.13;;;12.50;99.90;;;;;;5072661;28;20537;-76
2022/11/03 02:32:05;;;;;;;11.20;2.93;;;12.50;99.90;;;;;;5070518;28;20319;-75
2022/11/03 02:34:39;;;;;;;9.33;2.70;;;12.50;99.90;;;;;;5072136;28;20181;-76
2022/11/03 02:37:12;;;;;;;11.83;3.27;;;12.50;99.90;;;;;;5070514;28;20195;-79
2022/11/03 02:39:44;;;;;;;6.57;2.40;;;12.50;99.90;;;;;;5071362;28;20205;-76
2022/11/03 02:42:14;;;;;;;13.53;3.07;;;12.50;99.90;;;;;;5068225;28;20210;-77
2022/11/03 02:44:42;;;;;;;7.60;2.53;;;12.50;99.90;;;;;;5072167;28;20597;-76
2022/11/03 02:47:12;;;;;;;14.27;2.87;;;12.50;99.90;;;;;;5071231;28;20309;-76
2022/11/03 02:49:40;;;;;;;14.30;3.33;;;12.50;99.90;;;;;;5069381;28;20201;-78
2022/11/03 02:52:27;;;;;;;12.07;3.33;;;12.50;99.90;;;;;;5071813;28;20536;-76
2022/11/03 02:54:57;;;;;;;10.77;3.30;;;12.50;99.90;;;;;;5053378;28;20297;-77
2022/11/03 02:57:29;;;;;;;14.97;2.93;;;12.50;99.90;;;;;;5052101;28;20593;-77
2022/11/03 03:00:02;;;;;;;15.50;3.97;;;12.50;99.90;;;;;;5062388;28;20205;-78
2022/11/03 03:02:35;;;;;;;12.27;3.03;;;12.40;99.90;;;;;;5071684;28;20197;-76
2022/11/03 03:05:07;;;;;;;10.40;3.00;;;12.40;99.90;;;;;;5068715;28;20207;-76
2022/11/03 03:07:37;;;;;;;11.17;2.93;;;12.40;99.90;;;;;;5071374;28;20201;-76
2022/11/03 03:10:08;;;;;;;10.93;3.10;;;12.40;99.90;;;;;;5069699;28;20189;-76
2022/11/03 03:12:39;;;;;;;8.80;2.50;;;12.40;99.90;;;;;;5071885;28;20600;-76
2022/11/03 03:15:08;;;;;;;10.63;2.77;;;12.40;99.90;;;;;;5067603;28;20766;-75
2022/11/03 03:17:45;;;;;;;8.27;2.20;;;12.40;99.90;;;;;;5071708;28;20228;-76
2022/11/03 03:20:18;;;;;;;18.73;3.10;;;12.40;99.90;;;;;;5070733;28;20220;-77
2022/11/03 03:22:49;;;;;;;11.20;2.90;;;12.40;99.90;;;;;;5066360;28;20778;-80
2022/11/03 03:25:22;;;;;;;9.37;2.80;;;12.40;99.90;;;;;;5072694;28;20208;-76
2022/11/03 03:27:53;;;;;;;14.27;2.67;;;12.40;99.90;;;;;;5054437;28;20209;-76
2022/11/03 03:30:20;;;;;;;7.17;2.47;;;12.40;99.90;;;;;;5051075;28;20212;-76
2022/11/03 03:32:49;;;;;;;12.60;3.13;;;12.30;99.90;;;;;;5061114;28;20206;-77
2022/11/03 03:35:20;;;;;;;9.30;2.97;;;12.30;99.90;;;;;;5072302;28;20208;-77
2022/11/03 03:37:50;;;;;;;11.03;2.80;;;12.20;99.90;;;;;;5069011;28;20338;-76
2022/11/03 03:40:24;;;;;;;12.23;3.03;;;12.30;99.90;;;;;;5071408;28;20217;-77
2022/11/03 03:42:52;;;;;;;9.80;2.87;;;12.30;99.90;;;;;;5068823;28;20213;-76
2022/11/03 03:45:20;;;;;;;10.07;2.43;;;12.20;99.90;;;;;;5071476;28;20212;-75
2022/11/03 03:47:48;;;;;;;11.63;3.80;;;12.20;99.90;;;;;;5070360;28;20193;-77
2022/11/03 03:50:15;;;;;;;13.47;2.80;;;12.30;99.90;;;;;;5050879;28;20560;-78
2022/11/03 03:52:42;;;;;;;11.60;3.20;;;12.30;99.90;;;;;;5051337;28;20789;-77
2022/11/03 03:55:15;;;;;;;7.70;2.33;;;12.30;99.90;;;;;;5068660;28;20213;-78
2022/11/03 03:57:44;;;;;;;11.20;2.87;;;12.30;99.90;;;;;;5070148;28;20507;-77
2022/11/03 04:00:14;;;;;;;10.10;2.57;;;12.30;99.90;;;;;;5060880;28;20261;-77
2022/11/03 04:02:41;;;;;;;10.97;2.87;;;12.30;99.90;;;;;;5056673;28;20201;-76
2022/11/03 04:05:08;;;;;;;8.33;2.63;;;12.30;99.90;;;;;;5072734;28;20205;-82
2022/11/03 04:07:47;;;;;;;16.73;4.03;;;12.30;99.90;;;;;;5076114;28;20605;-81
2022/11/03 04:10:14;;;;;;;9.70;3.10;;;12.30;99.90;;;;;;5069776;28;20210;-80
2022/11/03 04:23:59;;;;;;;9.57;2.50;;;12.20;99.90;;;;;;5055729;28;20283;-82
2022/11/03 04:26:28;;;;;;;11.23;2.57;;;12.20;99.90;;;;;;5061744;28;20289;-81
2022/11/03 04:28:57;;;;;;;10.33;2.93;;;12.20;99.90;;;;;;5055781;28;20206;-83
2022/11/03 04:31:28;;;;;;;12.13;2.97;;;12.20;99.90;;;;;;5073124;28;20210;-80
2022/11/03 04:33:55;;;;;;;8.33;2.63;;;12.20;99.90;;;;;;5075165;28;20613;-81
2022/11/03 04:36:23;;;;;;;11.30;2.83;;;12.10;99.90;;;;;;5075646;28;20203;-82
2022/11/03 04:38:51;;;;;;;16.17;3.17;;;12.10;99.90;;;;;;5073115;28;20208;-79
2022/11/03 04:41:21;;;;;;;14.13;3.10;;;12.10;99.90;;;;;;5073788;28;20663;-77
2022/11/03 04:43:49;;;;;;;11.70;2.83;;;12.10;99.90;;;;;;5071415;28;20299;-77
2022/11/03 04:46:21;;;;;;;10.33;3.13;;;12.10;99.90;;;;;;5073880;28;20804;-77
2022/11/03 04:48:50;;;;;;;8.93;3.03;;;12.10;99.90;;;;;;5072289;28;20628;-82
2022/11/03 04:51:20;;;;;;;9.80;2.83;;;12.10;99.90;;;;;;5074981;28;20203;-80
2022/11/03 04:53:52;;;;;;;10.50;3.33;;;12.00;99.90;;;;;;5073402;28;20651;-84
2022/11/03 04:56:23;;;;;;;13.83;3.37;;;12.10;99.90;;;;;;5075528;28;20700;-81
2022/11/03 04:58:50;;;;;;;12.13;2.97;;;12.00;99.90;;;;;;5070590;28;20297;-78
2022/11/03 05:01:20;;;;;;;9.47;2.67;;;12.00;99.90;;;;;;5053587;28;20355;-78
2022/11/03 05:03:52;;;;;;;8.23;3.20;;;12.00;99.90;;;;;;5054529;28;20495;-77
2022/11/03 05:06:21;;;;;;;8.67;2.43;;;11.90;99.90;;;;;;5053989;28;20816;-78
2022/11/03 05:08:52;;;;;;;7.87;2.37;;;12.00;99.90;;;;;;5053890;28;20202;-81
2022/11/03 05:11:30;;;;;;;12.47;2.70;;;12.00;99.90;;;;;;5067398;28;20204;-81
2022/11/03 05:14:01;;;;;;;8.77;2.63;;;12.00;99.90;;;;;;5074157;28;20209;-79
2022/11/03 05:16:29;;;;;;;11.07;3.30;;;12.00;99.90;;;;;;5071852;28;20233;-80
2022/11/03 05:18:57;;;;;;;12.13;2.80;;;12.00;99.90;;;;;;5074611;28;20284;-80
2022/11/03 05:21:27;;;;;;;11.73;3.10;;;12.00;99.90;;;;;;5071762;28;20221;-82
2022/11/03 05:23:58;;;;;;;10.73;2.90;;;12.00;99.90;;;;;;5074383;28;20204;-80
2022/11/03 05:26:28;;;;;;;11.03;3.27;;;12.00;99.90;;;;;;5068637;28;20198;-82
2022/11/03 05:28:58;;;;;;;13.97;3.47;;;12.00;99.90;;;;;;5053953;28;20280;-84
2022/11/03 05:31:28;;;;;;;9.60;3.00;;;11.90;99.90;;;;;;5072881;28;20197;-81
2022/11/03 05:33:59;;;;;;;8.90;3.00;;;11.90;99.90;;;;;;5072942;28;20209;-79
2022/11/03 05:36:29;;;;;;;13.80;3.63;;;11.90;99.90;;;;;;5074346;28;20511;-82
2022/11/03 05:39:00;;;;;;;11.67;3.00;;;11.90;99.90;;;;;;5056407;28;20201;-81
2022/11/03 05:41:30;;;;;;;10.70;2.87;;;11.90;99.90;;;;;;5053846;28;20214;-80
2022/11/03 05:43:59;;;;;;;9.13;2.80;;;11.90;99.90;;;;;;5053953;28;20293;-80
2022/11/03 05:46:30;;;;;;;8.93;3.30;;;12.00;99.90;;;;;;5053775;28;20225;-78
2022/11/03 05:49:00;;;;;;;13.13;3.10;;;12.00;99.90;;;;;;5061990;28;20197;-82
2022/11/03 05:51:31;;;;;;;9.30;3.57;;;12.00;99.90;;;;;;5074153;28;20192;-82
2022/11/03 05:54:01;;;;;;;16.13;3.70;;;12.10;99.90;;;;;;5074428;28;20224;-81
2022/11/03 05:56:28;;;;;;;9.67;2.93;;;12.00;99.90;;;;;;5073054;28;20224;-82
2022/11/03 05:58:56;;;;;;;9.00;2.60;;;12.00;99.90;;;;;;5071915;28;20292;-83
2022/11/03 06:01:28;;;;;;;12.53;3.60;;;12.10;99.90;;;;;;5073696;28;20229;-82
2022/11/03 06:03:55;;;;;;;16.30;4.03;;;12.00;99.90;;;;;;5072062;28;20201;-82
2022/11/03 06:06:28;;;;;;;14.30;3.87;;;12.00;99.90;;;;;;5060623;28;20277;-83
2022/11/03 06:08:56;;;;;;;16.90;4.20;;;12.00;99.90;;;;;;5053056;28;20284;-77
2022/11/03 06:11:28;;;;;;;12.87;3.43;;;12.00;99.90;;;;;;5052361;28;20267;-77
2022/11/03 06:13:57;;;;;;;12.07;3.47;;;12.00;99.90;;;;;;5052915;28;20201;-77
2022/11/03 06:16:38;;;;;;;10.70;2.97;;;11.90;99.90;;;;;;5066674;28;20333;-77
2022/11/03 06:19:23;;;;;;;8.53;3.37;;;11.90;99.90;;;;;;5071417;28;20197;-76
2022/11/03 06:21:53;;;;;;;9.00;3.70;;;11.90;99.90;;;;;;5055782;28;20681;-79
2022/11/03 06:24:23;;;;;;;8.03;3.10;;;11.90;99.90;;;;;;5052840;28;20600;-75
2022/11/03 06:26:51;;;;;;;9.70;2.67;;;11.90;99.90;;;;;;5066894;28;20208;-78
2022/11/03 06:29:21;;;;;;;9.20;3.20;;;11.90;99.90;;;;;;5072849;28;20213;-78
2022/11/03 06:31:49;;;;;;;10.43;2.97;;;11.90;99.90;;;;;;5068525;28;20197;-77
2022/11/03 06:34:27;;;;;;;13.20;3.10;;;11.90;99.90;;;;;;5072762;28;20299;-78
2022/11/03 06:36:57;;;;;;;14.23;3.47;;;11.90;99.90;;;;;;5070004;28;20605;-77
2022/11/03 06:39:24;;;;;;;12.23;3.00;;;11.90;99.90;;;;;;5070486;28;20216;-78
2022/11/03 06:41:52;;;;;;;11.63;3.00;;;11.90;99.90;;;;;;5071971;28;20228;-76
2022/11/03 06:44:24;;;;;;;9.37;3.30;;;11.90;99.90;;;;;;5069718;28;20205;-77
2022/11/03 06:46:51;;;;;;;12.67;2.90;;;12.00;99.90;;;;;;5071612;28;20189;-75
2022/11/03 06:49:28;;;;;;;9.10;2.80;;;12.00;99.90;;;;;;5069706;28;20572;-76
2022/11/03 06:51:58;;;;;;;11.60;3.20;;;12.00;99.90;;;;;;5071875;28;20308;-77
2022/11/03 06:54:25;;;;;;;9.17;3.53;;;12.00;99.90;;;;;;5068683;28;20221;-76
2022/11/03 06:56:53;;;;;;;9.77;3.30;;;12.00;99.90;;;;;;5071802;28;20201;-76
2022/11/03 06:59:20;;;;;;;10.73;3.70;;;12.00;99.90;;;;;;5068751;28;20201;-77
2022/11/03 07:01:55;;;;;;;11.13;3.57;;;12.10;99.90;;;;;;5070853;28;20319;-77
2022/11/03 07:04:27;;;;;;;11.27;3.30;;;12.10;99.90;;;;;;5067705;28;20201;-77
2022/11/03 07:07:02;;;;;;;10.87;3.30;;;12.10;99.90;;;;;;5051380;28;20193;-77
2022/11/03 07:09:29;;;;;;;10.97;3.20;;;12.10;99.90;;;;;;5055133;28;20207;-77
2022/11/03 07:11:59;;;;;;;12.57;3.00;;;12.20;99.90;;;;;;5072019;28;20196;-77
2022/11/03 07:14:28;;;;;;;10.20;3.27;;;12.20;99.90;;;;;;5070327;28;20201;-76
2022/11/03 07:16:59;;;;;;;12.87;3.60;;;12.20;99.90;;;;;;5051416;28;20574;-77
2022/11/03 07:19:31;;;;;;;14.23;3.67;;;12.20;99.90;;;;;;5052285;28;20712;-82
2022/11/03 07:22:02;;;;;;;7.97;2.83;;;12.20;99.90;;;;;;5053096;28;20598;-80
2022/11/03 07:24:31;;;;;;;8.03;3.23;;;12.30;99.90;;;;;;5052587;28;20198;-80
2022/11/03 07:27:05;;;;;;;11.60;3.93;;;12.30;99.90;;;;;;5059976;28;20215;-78
2022/11/03 07:29:32;;;;;;;10.70;2.93;;;12.40;99.90;;;;;;5067122;28;20204;-82
2022/11/03 07:32:00;;;;;;;10.37;3.20;;;12.40;99.90;;;;;;5071140;28;20201;-83
2022/11/03 07:34:32;;;;;;;10.43;2.87;;;12.40;99.90;;;;;;5075247;28;20202;-78
2022/11/03 07:37:00;;;;;;;11.37;3.80;;;12.40;99.90;;;;;;5072294;28;20293;-79
2022/11/03 07:39:34;;;;;;;9.00;2.83;;;12.50;99.90;;;;;;5075409;28;20200;-76
2022/11/03 07:42:03;;;;;;;8.97;3.00;;;12.50;99.90;;;;;;5074454;28;20217;-77
2022/11/03 07:44:29;;;;;;;9.67;2.90;;;12.50;99.90;;;;;;5075280;28;20207;-77
2022/11/03 07:46:56;;;;;;;9.50;3.37;;;12.60;99.90;;;;;;5071580;28;20207;-78
2022/11/03 07:49:27;;;;;;;12.93;3.10;;;12.60;99.90;;;;;;5073815;28;20602;-77
2022/11/03 07:51:55;;;;;;;12.60;3.40;;;12.60;99.90;;;;;;5057562;28;20206;-76
2022/11/03 07:54:25;;;;;;;8.00;3.20;;;12.60;99.90;;;;;;5055284;28;20222;-77
2022/11/03 07:56:56;;;;;;;9.70;3.10;;;12.70;99.90;;;;;;5054717;28;20206;-76
2022/11/03 07:59:27;;;;;;;12.20;3.40;;;12.70;99.90;;;;;;5073095;28;20205;-77
2022/11/03 08:01:55;;;;;;;11.27;3.30;;;12.70;99.90;;;;;;5071328;28;20265;-77
2022/11/03 08:04:25;;;;;;;9.63;3.13;;;12.70;99.90;;;;;;5067102;28;20206;-78
2022/11/03 08:06:52;;;;;;;11.97;3.00;;;12.70;99.90;;;;;;5057389;28;20213;-77
2022/11/03 08:09:20;;;;;;;8.07;2.83;;;12.70;99.90;;;;;;5066786;28;20201;-77
2022/11/03 08:11:48;;;;;;;9.70;3.00;;;12.70;99.90;;;;;;5067174;28;20198;-76
2022/11/03 08:14:15;;;;;;;8.83;2.67;;;12.70;99.90;;;;;;5073273;28;20236;-79
2022/11/03 08:16:43;;;;;;;7.37;2.80;;;12.80;99.90;;;;;;5073589;28;20233;-77
2022/11/03 08:19:09;;;;;;;12.23;3.53;;;12.80;99.90;;;;;;5066879;28;20209;-78
2022/11/03 08:21:37;;;;;;;7.47;2.90;;;12.80;99.90;;;;;;5070004;28;20592;-77
2022/11/03 08:24:05;;;;;;;10.40;3.13;;;12.90;99.90;;;;;;5054126;28;20205;-76
2022/11/03 08:26:32;;;;;;;9.30;2.70;;;12.90;99.90;;;;;;5066256;28;20490;-77
2022/11/03 08:29:00;;;;;;;7.57;2.50;;;12.90;99.90;;;;;;5074102;28;20223;-77
2022/11/03 08:31:27;;;;;;;11.40;3.20;;;12.90;99.90;;;;;;5073167;28;20620;-77
2022/11/03 08:33:54;;;;;;;11.87;3.40;;;12.90;99.90;;;;;;5071954;28;20539;-77
2022/11/03 08:36:22;;;;;;;8.47;2.97;;;12.90;99.90;;;;;;5068765;28;20613;-77
2022/11/03 08:38:48;;;;;;;12.33;3.30;;;13.00;99.90;;;;;;5053966;28;20233;-79
2022/11/03 08:41:15;;;;;;;9.27;3.20;;;13.00;99.90;;;;;;5064047;28;20724;-76
2022/11/03 08:43:42;;;;;;;13.57;2.93;;;13.10;99.90;;;;;;5060172;28;20292;-77
2022/11/03 08:46:10;;;;;;;15.73;3.37;;;13.10;99.90;;;;;;5071923;28;20807;-78
2022/11/03 08:48:37;;;;;;;12.07;3.17;;;13.10;99.90;;;;;;5066215;28;20610;-78
2022/11/03 08:51:04;;;;;;;13.67;3.20;;;13.10;99.90;;;;;;5064541;28;20197;-77
2022/11/03 08:53:31;;;;;;;9.03;3.20;;;13.10;99.90;;;;;;5061851;28;20236;-77
2022/11/03 08:55:58;;;;;;;6.97;2.87;;;13.10;99.90;;;;;;5059644;28;20565;-77
2022/11/03 08:58:25;;;;;;;7.90;2.67;;;13.20;99.90;;;;;;5061602;28;20226;-79
2022/11/03 09:00:52;;;;;;;13.53;3.77;;;13.20;99.90;;;;;;5063437;28;20205;-80
2022/11/03 09:03:20;;;;;;;13.57;3.30;;;13.20;99.90;;;;;;5065115;28;20232;-77
2022/11/03 09:05:47;;;;;;;8.23;3.20;;;13.20;99.90;;;;;;5082383;28;20529;-79
2022/11/03 09:08:14;;;;;;;10.70;3.20;;;13.30;99.90;;;;;;5065615;28;20209;-79
2022/11/03 09:10:41;;;;;;;10.13;3.50;;;13.30;99.90;;;;;;5074015;28;20212;-77
2022/11/03 09:13:08;;;;;;;13.53;3.60;;;13.30;99.90;;;;;;5063695;28;20213;-77
2022/11/03 09:15:34;;;;;;;11.37;3.17;;;13.30;99.90;;;;;;5061421;28;20233;-78
2022/11/03 09:18:01;;;;;;;11.63;3.57;;;13.30;99.90;;;;;;5071465;28;20209;-80
2022/11/03 09:20:30;;;;;;;11.00;3.43;;;13.30;99.90;;;;;;5080195;28;20217;-76
2022/11/03 09:22:57;;;;;;;14.20;3.40;;;13.30;99.90;;;;;;5093810;28;20221;-77
2022/11/03 09:25:24;;;;;;;12.47;3.30;;;13.40;99.90;;;;;;5079197;28;20224;-82
2022/11/03 09:27:50;;;;;;;14.33;3.50;;;13.50;99.90;;;;;;5089750;28;20227;-77
2022/11/03 09:30:18;;;;;;;9.87;3.23;;;13.50;99.90;;;;;;5073285;28;20615;-79
2022/11/03 09:32:45;;;;;;;10.90;3.47;;;13.50;99.90;;;;;;5075076;28;20263;-77
2022/11/03 09:35:13;;;;;;;9.30;3.10;;;13.50;99.90;;;;;;5070972;28;20209;-79
2022/11/03 09:37:41;;;;;;;14.67;3.30;;;13.50;99.90;;;;;;5074368;28;20197;-77
2022/11/03 09:40:10;;;;;;;7.17;3.10;;;13.50;99.90;;;;;;5074568;28;20235;-77
2022/11/03 09:42:39;;;;;;;17.33;4.33;;;13.50;99.90;;;;;;5072489;28;20217;-78
2022/11/03 09:45:08;;;;;;;12.67;3.93;;;13.50;99.90;;;;;;5078478;28;20610;-77
2022/11/03 09:47:37;;;;;;;11.97;3.57;;;13.60;99.90;;;;;;5086108;28;20538;-78
2022/11/03 09:50:07;;;;;;;11.60;3.87;;;13.60;99.90;;;;;;5064835;28;20197;-78
2022/11/03 09:52:36;;;;;;;8.63;3.70;;;13.70;99.90;;;;;;5074296;28;20208;-76
2022/11/03 09:55:13;;;;;;;9.97;3.30;;;13.80;99.90;;;;;;5074902;28;20284;-79
2022/11/03 09:57:40;;;;;;;10.97;3.53;;;13.90;99.90;;;;;;5070460;28;20220;-78
2022/11/03 10:00:17;;;;;;;10.10;3.13;;;13.90;99.90;;;;;;5074427;28;20296;-75
2022/11/03 10:02:44;;;;;;;10.50;3.50;;;14.00;99.90;;;;;;5070521;28;20270;-77
2022/11/03 10:05:14;;;;;;;8.13;3.30;;;14.00;99.90;;;;;;5072950;28;20275;-77
2022/11/03 10:07:43;;;;;;;11.57;3.10;;;14.10;99.90;;;;;;5070865;28;20195;-76
2022/11/03 10:10:17;;;;;;;9.27;3.00;;;14.10;99.90;;;;;;5072798;28;20215;-79
2022/11/03 10:12:45;;;;;;;10.03;3.20;;;14.20;99.90;;;;;;5070660;28;20205;-77
2022/11/03 10:15:15;;;;;;;11.30;3.30;;;14.30;99.90;;;;;;5072717;28;20462;-76
2022/11/03 10:17:43;;;;;;;14.30;3.80;;;14.40;99.90;;;;;;5070994;28;20385;-78
2022/11/03 10:20:12;;;;;;;11.37;3.00;;;14.40;99.90;;;;;;5073846;28;20215;-80
2022/11/03 10:22:39;;;;;;;11.80;3.17;;;14.40;99.90;;;;;;5072556;28;20252;-80
2022/11/03 10:25:32;;;;;;;11.77;3.10;;;14.40;99.90;;;;;;5069775;28;20668;-78
2022/11/03 10:28:22;;;;;;;8.80;2.83;;;14.40;99.90;;;;;;5074090;28;20285;-77
2022/11/03 10:30:56;;;;;;;9.00;2.87;;;14.40;99.90;;;;;;5071043;28;20763;-80
2022/11/03 10:33:29;;;;;;;12.00;3.20;;;14.50;99.90;;;;;;5073975;28;20496;-78
2022/11/03 10:35:58;;;;;;;13.23;3.20;;;14.40;99.90;;;;;;5072553;28;20220;-78
2022/11/03 10:38:27;;;;;;;11.07;3.10;;;14.50;99.90;;;;;;5070708;28;20193;-77
2022/11/03 10:40:56;;;;;;;16.00;3.23;;;14.50;99.90;;;;;;5068052;28;20235;-79
2022/11/03 10:43:23;;;;;;;10.57;3.50;;;14.50;99.90;;;;;;5070701;28;20229;-80
2022/11/03 10:45:54;;;;;;;12.03;3.50;;;14.50;99.90;;;;;;5067923;28;20291;-79
2022/11/03 10:48:21;;;;;;;11.67;3.33;;;14.50;99.90;;;;;;5071260;28;20198;-78
2022/11/03 10:50:48;;;;;;;12.57;3.53;;;14.60;99.90;;;;;;5065113;28;20218;-78
2022/11/03 10:53:18;;;;;;;7.57;2.60;;;14.60;99.90;;;;;;5052752;28;20246;-77
2022/11/03 10:55:45;;;;;;;11.43;2.90;;;14.60;99.90;;;;;;5070064;28;20283;-78
2022/11/03 10:58:13;;;;;;;12.47;3.40;;;14.60;99.90;;;;;;5071716;28;20209;-77
2022/11/03 11:00:41;;;;;;;12.60;2.77;;;14.60;99.90;;;;;;5071580;28;20200;-77
2022/11/03 11:03:08;;;;;;;10.03;2.87;;;14.60;99.90;;;;;;5071538;28;20229;-78
2022/11/03 11:05:35;;;;;;;6.77;2.67;;;14.60;99.90;;;;;;5071925;28;20292;-77
2022/11/03 11:08:02;;;;;;;18.17;3.93;;;14.70;99.90;;;;;;5086329;22;20236;-78
2022/11/03 11:10:30;;;;;;;12.73;3.87;;;14.70;99.90;;;;;;5092460;28;20196;-78
2022/11/03 11:13:25;;;;;;;10.53;3.37;;;14.60;99.90;;;;;;5090577;28;20231;-79
2022/11/03 11:15:53;;;;;;;9.63;2.87;;;14.60;99.90;;;;;;5092756;28;20208;-80
2022/11/03 11:19:13;;;;;;;7.73;3.03;;;14.60;99.90;;;;;;5092811;28;20250;-80
2022/11/03 11:22:16;;;;;;;7.37;2.70;;;14.60;99.90;;;;;;5091978;28;20295;-79
2022/11/03 11:25:02;;;;;;;8.00;2.53;;;14.60;99.90;;;;;;5090723;28;20283;-78
2022/11/03 11:28:05;;;;;;;11.70;2.87;;;14.60;99.90;;;;;;5093186;28;20211;-79
2022/11/03 11:30:57;;;;;;;7.43;2.60;;;14.60;99.90;;;;;;5094067;28;20226;-79
2022/11/03 11:33:25;;;;;;;8.90;2.80;;;14.70;99.90;;;;;;5095103;28;20507;-79
2022/11/03 11:36:28;;;;;;;8.43;2.63;;;14.80;99.90;;;;;;5073984;28;20568;-80
2022/11/03 11:38:56;;;;;;;5.90;2.43;;;15.00;99.90;;;;;;5074612;28;20201;-81
2022/11/03 11:41:58;;;;;;;8.70;2.50;;;15.00;99.90;;;;;;5098006;22;20712;-83
2022/11/03 11:44:52;;;;;;;8.83;2.57;;;15.00;99.90;;;;;;5037573;28;20208;-84
2022/11/03 11:47:26;;;;;;;5.73;2.40;;;15.00;99.90;;;;;;5017643;28;20229;-81
2022/11/03 11:50:15;;;;;;;7.37;2.40;;;15.00;99.90;;;;;;5016135;28;20242;-81
2022/11/03 11:52:45;;;;;;;10.23;2.77;;;15.00;99.90;;;;;;5013876;28;20302;-81
2022/11/03 11:55:20;;;;;;;8.30;2.63;;;15.00;99.90;;;;;;5012594;28;20606;-81
2022/11/03 11:57:48;;;;;;;11.57;3.00;;;15.10;99.90;;;;;;5029369;28;20206;-84
2022/11/03 12:00:21;;;;;;;11.73;2.90;;;15.10;99.90;;;;;;5032796;28;20593;-80
2022/11/03 12:02:52;;;;;;;10.13;3.10;;;15.10;99.90;;;;;;5030207;28;20229;-84
2022/11/03 12:05:24;;;;;;;9.60;2.87;;;15.20;99.90;;;;;;5032251;28;20199;-82
2022/11/03 12:07:52;;;;;;;8.77;2.93;;;15.10;99.90;;;;;;5031479;28;20618;-83
2022/11/03 12:10:22;;;;;;;7.93;2.70;;;15.20;99.90;;;;;;5031434;28;20203;-82
2022/11/03 12:12:49;;;;;;;6.33;2.70;;;15.10;99.90;;;;;;5030591;28;20206;-81
2022/11/03 12:15:54;;;;;;;9.07;2.70;;;15.10;99.90;;;;;;5031723;28;20203;-77
2022/11/03 12:18:34;;;;;;;15.10;2.50;;;15.10;99.90;;;;;;5013666;28;20290;-79
2022/11/03 12:21:01;;;;;;;9.77;2.50;;;15.10;99.90;;;;;;5015827;28;20580;-79
2022/11/03 12:23:40;;;;;;;6.13;2.38;;;15.10;99.90;;;;;;5016122;28;20227;-77
2022/11/03 12:26:13;;;;;;;7.97;2.40;;;15.10;99.90;;;;;;5015663;28;20187;-79
2022/11/03 12:28:40;;;;;;;6.13;2.33;;;15.10;99.90;;;;;;5015814;28;20199;-78
2022/11/03 12:31:07;;;;;;;7.97;2.70;;;15.10;99.90;;;;;;5015926;28;20211;-78
2022/11/03 12:33:35;;;;;;;6.13;2.03;;;15.10;99.90;;;;;;5015565;28;20290;-79
2022/11/03 12:36:02;;;;;;;8.20;2.77;;;15.20;99.90;;;;;;5030843;28;20214;-79
2022/11/03 12:38:29;;;;;;;8.13;2.40;;;15.20;99.90;;;;;;5035219;28;20198;-80
2022/11/03 12:40:56;;;;;;;8.83;2.80;;;15.20;99.90;;;;;;5032703;28;20261;-82
2022/11/03 12:43:23;;;;;;;7.30;2.33;;;15.20;99.90;;;;;;5035361;28;20218;-78
2022/11/03 12:45:50;;;;;;;4.67;2.23;;;15.10;99.90;;;;;;5028010;28;20508;-80
2022/11/03 12:48:18;;;;;;;6.07;2.00;;;15.10;99.90;;;;;;5014920;28;20262;-79
2022/11/03 12:50:46;;;;;;;7.50;2.43;;;15.10;99.90;;;;;;5020522;28;20202;-77
2022/11/03 12:53:13;;;;;;;6.30;2.37;;;15.00;99.90;;;;;;5050861;28;20218;-77
2022/11/03 12:55:40;;;;;;;7.70;2.73;;;15.00;99.90;;;;;;5054918;28;20252;-79
2022/11/03 12:58:07;;;;;;;5.83;2.10;;;14.90;99.90;;;;;;5035002;28;20595;-78
2022/11/03 13:00:33;;;;;;;6.67;2.20;;;14.90;99.90;;;;;;5033998;28;20202;-79
2022/11/03 13:03:00;;;;;;;10.10;2.10;;;14.90;99.90;;;;;;5018188;28;20216;-79
2022/11/03 13:05:27;;;;;;;6.53;1.93;;;14.80;99.90;;;;;;5014323;28;20201;-78
2022/11/03 13:07:56;;;;;;;7.13;2.20;;;14.80;99.90;;;;;;5014850;28;20297;-77
2022/11/03 13:10:22;;;;;;;6.10;2.20;;;14.80;99.90;;;;;;5014246;28;20238;-78
2022/11/03 13:12:49;;;;;;;6.83;2.20;;;14.80;99.90;;;;;;5015069;28;20209;-78
2022/11/03 13:15:16;;;;;;;4.50;2.00;;;14.80;99.90;;;;;;5015397;28;20196;-77